Time;durP1;ratioP1;P1;durP2;ratioP2;P2;SDS_P1;SDS_P2;PMS_P1;PMS_P2;Temp;Humidity;BMP_temperature;BMP_pressure;BME280_temperature;BME280_humidity;BME280_pressure;Samples;Min_cycle;Max_cycle;Signal;HPM_P1;HPM_P2
2023/04/09 00:01:29;;;;;;;39.33;23.10;;;;;;;9.50;62.34;100871.13;4990182;28;20582;-82
2023/04/09 00:03:55;;;;;;;39.22;24.17;;;;;;;9.45;62.25;100873.06;4990388;28;20060;-82
2023/04/09 00:06:22;;;;;;;39.08;23.70;;;;;;;9.43;62.24;100872.25;4989946;28;20058;-81
2023/04/09 00:08:48;;;;;;;39.05;23.77;;;;;;;9.38;62.21;100874.16;4989502;28;20152;-82
2023/04/09 00:11:15;;;;;;;38.90;24.80;;;;;;;9.34;62.45;100875.19;4990415;28;20133;-82
2023/04/09 00:13:41;;;;;;;38.55;24.67;;;;;;;9.28;62.33;100871.00;4990432;28;20066;-82
2023/04/09 00:16:08;;;;;;;38.22;24.52;;;;;;;9.23;62.56;100860.66;4988493;28;20055;-82
2023/04/09 00:18:35;;;;;;;39.05;24.23;;;;;;;9.19;62.48;100866.06;4989881;28;20692;-82
2023/04/09 00:21:01;;;;;;;40.50;24.85;;;;;;;9.13;62.71;100872.38;5021240;28;20050;-82
2023/04/09 00:23:28;;;;;;;44.38;26.02;;;;;;;9.06;62.78;100874.34;4990088;28;20587;-82
2023/04/09 00:25:54;;;;;;;40.47;24.92;;;;;;;9.03;62.89;100868.31;4972563;28;20058;-82
2023/04/09 00:28:21;;;;;;;44.55;26.55;;;;;;;8.97;63.10;100864.16;4989710;28;20077;-82
2023/04/09 00:30:47;;;;;;;44.17;27.27;;;;;;;8.92;63.27;100856.41;4988803;28;20069;-82
2023/04/09 00:33:14;;;;;;;43.97;26.80;;;;;;;8.89;63.11;100855.66;4989919;28;20509;-82
2023/04/09 00:35:40;;;;;;;44.42;27.10;;;;;;;8.84;63.33;100850.53;4991736;28;20062;-81
2023/04/09 00:38:07;;;;;;;48.42;27.92;;;;;;;8.80;63.41;100857.66;4993667;28;20500;-82
2023/04/09 00:40:33;;;;;;;47.63;28.30;;;;;;;8.77;63.60;100857.75;4994002;28;20444;-82
2023/04/09 00:43:01;;;;;;;46.20;28.05;;;;;;;8.73;63.85;100851.75;4993924;28;20050;-82
2023/04/09 00:45:27;;;;;;;46.28;28.10;;;;;;;8.70;64.03;100851.84;4993448;28;20066;-82
2023/04/09 00:47:54;;;;;;;47.80;28.02;;;;;;;8.68;64.00;100844.94;4993324;28;20090;-82
2023/04/09 00:50:21;;;;;;;44.88;28.92;;;;;;;8.64;64.03;100846.81;4993687;28;20058;-82
2023/04/09 00:52:47;;;;;;;46.53;27.98;;;;;;;8.65;64.20;100852.88;4994011;28;20066;-82
2023/04/09 00:55:14;;;;;;;44.88;28.42;;;;;;;8.61;64.52;100844.25;5024922;28;20554;-82
2023/04/09 00:57:40;;;;;;;48.83;29.65;;;;;;;8.60;64.28;100842.56;4993208;28;20062;-82
2023/04/09 01:00:10;;;;;;;49.45;29.27;;;;;;;8.59;64.39;100846.94;4993726;28;20082;-82
2023/04/09 01:02:36;;;;;;;47.17;29.63;;;;;;;8.59;64.49;100851.31;4993422;28;20085;-81
2023/04/09 01:05:04;;;;;;;51.72;29.98;;;;;;;8.58;64.35;100844.34;4993121;28;20062;-81
2023/04/09 01:08:02;;;;;;;52.45;31.20;;;;;;;8.54;65.71;100842.72;4991920;28;20077;-82
2023/04/09 01:10:36;;;;;;;51.80;30.63;;;;;;;8.55;64.86;100841.81;4993228;28;20451;-82
2023/04/09 01:13:09;;;;;;;46.22;30.83;;;;;;;8.53;65.22;100843.63;4993581;28;20062;-82
2023/04/09 01:15:50;;;;;;;50.83;29.73;;;;;;;8.47;65.50;100845.53;4992984;28;20505;-82
2023/04/09 01:18:27;;;;;;;50.58;29.85;;;;;;;8.48;65.40;100847.22;4992977;28;20128;-81
2023/04/09 01:20:58;;;;;;;51.92;31.42;;;;;;;8.50;64.27;100847.19;4993261;28;20058;-82
2023/04/09 01:23:36;;;;;;;49.67;30.65;;;;;;;8.45;65.36;100851.72;4993211;28;20054;-82
2023/04/09 01:26:10;;;;;;;49.50;30.02;;;;;;;8.43;65.20;100846.53;4993175;28;20067;-82
2023/04/09 01:28:42;;;;;;;45.83;28.38;;;;;;;8.43;64.62;100849.13;4991226;28;20517;-81
2023/04/09 01:31:12;;;;;;;42.80;26.85;;;;;;;8.42;64.29;100844.81;4992149;28;20057;-81
2023/04/09 01:33:43;;;;;;;48.78;29.38;;;;;;;8.38;64.52;100848.44;4991823;28;20141;-81
2023/04/09 01:36:10;;;;;;;54.08;30.98;;;;;;;8.37;64.15;100848.47;4992613;28;20062;-81
2023/04/09 01:38:40;;;;;;;49.97;29.80;;;;;;;8.33;64.19;100848.56;4992566;28;20073;-82
2023/04/09 01:41:11;;;;;;;48.35;29.25;;;;;;;8.31;64.09;100846.88;4991667;28;20058;-82
2023/04/09 01:43:38;;;;;;;46.92;28.80;;;;;;;8.29;63.94;100848.69;4993033;28;20064;-82
2023/04/09 01:46:05;;;;;;;49.78;28.35;;;;;;;8.26;63.92;100848.78;4990622;28;20058;-82
2023/04/09 01:48:33;;;;;;;45.75;28.92;;;;;;;8.23;64.04;100848.88;4991132;28;20068;-82
2023/04/09 01:51:00;;;;;;;46.80;29.35;;;;;;;8.20;64.10;100847.19;4992562;28;20532;-82
2023/04/09 01:53:29;;;;;;;49.10;28.50;;;;;;;8.18;64.25;100851.63;4992904;28;20062;-82
2023/04/09 01:56:00;;;;;;;48.63;28.35;;;;;;;8.13;64.62;100845.66;4992239;28;20058;-82
2023/04/09 01:58:27;;;;;;;47.47;27.10;;;;;;;8.10;64.22;100841.34;4992200;28;20055;-82
2023/04/09 02:01:05;;;;;;;47.00;28.45;;;;;;;8.04;65.60;100837.16;4991129;28;20609;-82
2023/04/09 02:03:36;;;;;;;42.90;25.95;;;;;;;8.03;64.66;100832.81;4992799;28;20500;-82
2023/04/09 02:06:14;;;;;;;43.85;26.67;;;;;;;8.00;64.59;100838.13;4992147;28;20065;-82
2023/04/09 02:08:46;;;;;;;44.40;25.70;;;;;;;7.96;64.80;100836.50;4991675;28;20054;-83
2023/04/09 02:11:14;;;;;;;39.97;24.33;;;;;;;7.95;64.15;100835.66;4992433;28;20050;-82
2023/04/09 02:13:42;;;;;;;43.35;25.60;;;;;;;7.92;64.53;100837.50;4992144;28;20846;-82
2023/04/09 02:16:12;;;;;;;41.60;25.60;;;;;;;7.89;64.41;100841.06;4990158;28;20058;-83
2023/04/09 02:18:39;;;;;;;43.95;25.95;;;;;;;7.87;64.74;100837.63;5009147;28;20058;-82
2023/04/09 02:21:06;;;;;;;43.83;25.80;;;;;;;7.84;64.21;100837.72;5011526;28;20055;-82
2023/04/09 02:23:32;;;;;;;45.50;25.92;;;;;;;7.83;64.32;100830.75;5010227;28;20508;-82
2023/04/09 02:26:00;;;;;;;44.83;25.20;;;;;;;7.80;64.51;100836.09;5011276;28;20086;-82
2023/04/09 02:28:27;;;;;;;43.20;25.45;;;;;;;7.78;64.65;100828.25;5011024;28;20062;-82
2023/04/09 02:30:53;;;;;;;44.22;26.20;;;;;;;7.76;64.62;100826.59;5041398;28;20512;-82
2023/04/09 02:33:20;;;;;;;43.20;25.75;;;;;;;7.74;64.70;100823.16;5002018;28;20054;-83
2023/04/09 02:35:46;;;;;;;45.55;27.58;;;;;;;7.73;65.03;100821.44;5006026;28;20050;-82
2023/04/09 02:38:14;;;;;;;50.00;27.15;;;;;;;7.69;64.72;100821.53;4989994;28;20057;-82
2023/04/09 02:40:41;;;;;;;44.90;25.85;;;;;;;7.67;64.87;100823.31;4991488;28;20065;-82
2023/04/09 02:43:09;;;;;;;44.80;26.60;;;;;;;7.64;65.02;100818.19;4990611;28;20062;-83
2023/04/09 02:45:35;;;;;;;45.53;27.67;;;;;;;7.63;65.07;100821.69;4991475;28;20081;-83
2023/04/09 02:48:02;;;;;;;50.25;26.50;;;;;;;7.61;64.96;100815.63;4990956;28;20062;-82
2023/04/09 02:50:28;;;;;;;45.15;26.08;;;;;;;7.61;64.85;100815.63;4974214;28;20061;-83
2023/04/09 02:52:55;;;;;;;46.53;28.35;;;;;;;7.56;64.84;100807.88;4991396;28;20135;-83
2023/04/09 02:55:22;;;;;;;48.25;27.88;;;;;;;7.55;65.17;100811.41;4991087;28;20054;-83
2023/04/09 02:57:48;;;;;;;47.78;27.63;;;;;;;7.54;65.46;100811.47;4990194;28;20058;-82
2023/04/09 03:00:15;;;;;;;51.92;29.40;;;;;;;7.52;65.05;100801.00;4990145;28;20096;-82
2023/04/09 03:02:41;;;;;;;48.83;28.10;;;;;;;7.49;65.38;100810.72;4974013;28;20150;-82
2023/04/09 03:05:08;;;;;;;47.63;26.70;;;;;;;7.48;65.18;100809.00;4991038;28;20058;-82
2023/04/09 03:07:35;;;;;;;47.47;27.58;;;;;;;7.46;65.62;100801.19;4989567;28;20884;-82
2023/04/09 03:10:01;;;;;;;47.35;28.13;;;;;;;7.46;65.42;100803.81;4990806;28;20062;-82
2023/04/09 03:12:28;;;;;;;46.53;26.80;;;;;;;7.44;65.36;100805.59;4991282;28;20068;-82
2023/04/09 03:14:54;;;;;;;51.95;27.27;;;;;;;7.42;65.25;100800.44;4990932;28;20117;-82
2023/04/09 03:17:23;;;;;;;50.08;28.27;;;;;;;7.40;65.51;100799.59;4990700;28;20133;-82
2023/04/09 03:19:50;;;;;;;47.50;26.58;;;;;;;7.37;65.86;100791.81;4991012;28;20096;-82
2023/04/09 03:22:16;;;;;;;46.10;26.58;;;;;;;7.37;65.79;100794.44;4990802;28;20054;-82
2023/04/09 03:24:42;;;;;;;45.35;26.17;;;;;;;7.35;65.98;100783.16;4991129;28;20469;-82
2023/04/09 03:27:09;;;;;;;47.78;27.05;;;;;;;7.34;65.96;100784.06;5021741;28;20058;-82
2023/04/09 03:29:35;;;;;;;49.97;27.02;;;;;;;7.33;66.01;100779.69;4989692;28;20065;-82
2023/04/09 03:32:02;;;;;;;50.00;26.88;;;;;;;7.33;65.87;100782.31;5022134;28;20046;-83
2023/04/09 03:34:28;;;;;;;48.40;27.42;;;;;;;7.31;65.95;100776.28;4990964;28;20069;-83
2023/04/09 03:36:55;;;;;;;44.38;26.15;;;;;;;7.29;65.88;100781.56;5021399;28;20064;-83
2023/04/09 03:39:23;;;;;;;46.22;26.70;;;;;;;7.27;65.74;100780.75;4989464;28;20066;-83
2023/04/09 03:41:50;;;;;;;48.35;27.70;;;;;;;7.27;66.19;100775.50;4989431;28;20058;-83
2023/04/09 03:44:16;;;;;;;52.13;26.98;;;;;;;7.25;66.28;100776.44;4989558;28;20073;-83
2023/04/09 03:46:43;;;;;;;45.75;26.88;;;;;;;7.25;65.84;100777.28;4989943;28;20129;-83
2023/04/09 03:49:09;;;;;;;48.67;26.30;;;;;;;7.24;65.82;100772.09;4990601;28;20149;-83
2023/04/09 03:51:36;;;;;;;44.58;26.20;;;;;;;7.22;66.23;100776.53;4990449;28;20050;-83
2023/04/09 03:54:02;;;;;;;46.17;27.65;;;;;;;7.22;66.03;100772.13;4989513;28;20060;-83
2023/04/09 03:56:29;;;;;;;48.20;27.10;;;;;;;7.21;66.33;100770.41;4990133;28;20505;-83
2023/04/09 03:58:55;;;;;;;48.42;26.58;;;;;;;7.21;66.40;100769.56;5021505;28;20058;-83
2023/04/09 04:01:22;;;;;;;49.88;26.30;;;;;;;7.21;66.13;100769.56;4990501;28;20058;-83
2023/04/09 04:03:48;;;;;;;48.13;27.02;;;;;;;7.21;66.28;100769.56;4973086;28;20062;-83
2023/04/09 04:06:15;;;;;;;49.03;26.42;;;;;;;7.21;66.26;100769.56;5021124;28;20066;-82
2023/04/09 04:11:19;;;;;;;51.80;26.83;;;;;;;7.22;66.29;100771.28;4976521;23;20106;-79
2023/04/09 04:13:45;;;;;;;51.78;28.00;;;;;;;7.21;66.27;100770.41;5033028;28;20072;-79
2023/04/09 04:16:12;;;;;;;48.60;27.33;;;;;;;7.20;66.65;100770.44;5041775;28;20053;-79
2023/04/09 04:18:38;;;;;;;49.50;27.33;;;;;;;7.20;66.12;100779.19;5040128;28;20060;-80
2023/04/09 04:21:11;;;;;;;49.95;28.65;;;;;;;7.17;66.73;100771.41;5043351;28;20056;-80
2023/04/09 04:23:38;;;;;;;;;;;;;;;7.17;67.15;100774.88;5050554;28;20049;-80
2023/04/09 04:26:11;;;;;;;43.55;24.17;;;;;;;7.19;66.30;100780.09;5038253;28;19932;-80
2023/04/09 04:28:38;;;;;;;;;;;;;;;7.17;66.83;100782.75;5048163;28;20089;-80
2023/04/09 04:31:11;;;;;;;41.70;23.90;;;;;;;7.19;66.19;100779.22;5050379;28;19936;-79
2023/04/09 04:33:40;;;;;;;50.40;26.25;;;;;;;7.15;65.84;100781.91;5050571;28;20061;-79
2023/04/09 04:36:11;;;;;;;48.58;26.15;;;;;;;7.11;66.43;100779.44;5050097;28;20057;-79
2023/04/09 04:38:40;;;;;;;49.30;25.77;;;;;;;7.12;65.83;100786.38;5050212;28;20057;-80
2023/04/09 04:41:07;;;;;;;50.85;26.42;;;;;;;7.07;65.84;100778.66;5050216;28;20057;-80
2023/04/09 04:43:33;;;;;;;49.53;27.80;;;;;;;7.06;66.09;100779.53;5050129;28;20052;-79
2023/04/09 04:46:00;;;;;;;47.42;27.85;;;;;;;7.03;66.43;100777.00;5049715;28;20092;-79
2023/04/09 04:48:28;;;;;;;53.80;29.10;;;;;;;7.01;66.34;100784.91;5049949;28;20081;-79
2023/04/09 04:50:56;;;;;;;51.63;27.85;;;;;;;7.00;66.10;100787.56;5032213;28;20501;-79
2023/04/09 04:53:23;;;;;;;51.80;28.70;;;;;;;6.98;66.27;100784.09;5050221;28;20060;-79
2023/04/09 04:55:49;;;;;;;53.20;28.20;;;;;;;6.95;66.19;100779.81;5049677;28;20063;-79
2023/04/09 04:58:16;;;;;;;47.28;26.73;;;;;;;6.94;66.28;100772.00;5032203;28;20067;-79
2023/04/09 05:00:44;;;;;;;52.08;28.30;;;;;;;6.93;66.33;100781.63;5050263;28;20052;-79
2023/04/09 05:03:11;;;;;;;49.17;27.58;;;;;;;6.91;66.30;100783.41;5049931;28;20053;-79
2023/04/09 05:05:38;;;;;;;50.85;27.90;;;;;;;6.90;66.54;100772.09;5049882;28;20049;-80
2023/04/09 05:08:04;;;;;;;50.35;27.30;;;;;;;6.90;66.47;100774.69;5049762;28;20088;-80
2023/04/09 05:10:31;;;;;;;54.00;27.65;;;;;;;6.90;66.73;100777.31;5050125;28;20057;-79
2023/04/09 05:12:57;;;;;;;49.03;27.60;;;;;;;6.91;66.55;100768.56;5049968;28;20092;-79
2023/04/09 05:15:24;;;;;;;48.67;26.95;;;;;;;6.93;66.68;100770.28;5049683;28;20136;-80
2023/04/09 05:17:51;;;;;;;48.97;27.33;;;;;;;6.94;67.05;100772.84;5049749;28;20096;-80
2023/04/09 05:20:17;;;;;;;51.53;28.33;;;;;;;6.95;67.09;100766.72;5049729;28;20075;-79
2023/04/09 05:22:44;;;;;;;49.45;27.80;;;;;;;6.98;66.84;100776.25;5053520;28;20052;-79
2023/04/09 05:25:10;;;;;;;52.40;28.98;;;;;;;6.98;67.06;100776.25;5053104;28;20476;-79
2023/04/09 05:27:37;;;;;;;51.20;28.10;;;;;;;6.99;66.82;100770.13;5052982;28;20073;-80
2023/04/09 05:30:03;;;;;;;51.20;28.17;;;;;;;7.00;67.15;100777.09;5053106;28;20048;-80
2023/04/09 05:32:30;;;;;;;51.80;29.63;;;;;;;7.01;66.95;100776.19;5053391;28;20063;-79
2023/04/09 05:34:57;;;;;;;53.53;28.77;;;;;;;7.03;67.01;100777.00;5052900;28;20493;-77
2023/04/09 05:37:24;;;;;;;54.13;29.58;;;;;;;7.04;67.42;100779.56;5035281;28;20416;-79
2023/04/09 05:39:50;;;;;;;52.72;28.98;;;;;;;7.07;67.44;100780.41;5053004;28;20521;-78
2023/04/09 05:42:17;;;;;;;49.60;29.08;;;;;;;7.08;67.27;100777.75;5035278;28;20092;-79
2023/04/09 05:44:44;;;;;;;50.67;27.15;;;;;;;7.11;67.52;100779.44;5053089;28;20064;-79
2023/04/09 05:47:10;;;;;;;50.92;28.35;;;;;;;7.13;67.12;100781.09;5034717;28;20048;-79
2023/04/09 05:49:37;;;;;;;50.08;28.17;;;;;;;7.15;67.25;100783.69;5052781;28;20509;-77
2023/04/09 05:52:03;;;;;;;50.55;28.35;;;;;;;7.17;67.36;100787.09;5052900;28;20059;-78
2023/04/09 05:54:30;;;;;;;54.25;29.35;;;;;;;7.20;67.41;100789.66;5052970;28;20075;-78
2023/04/09 05:56:57;;;;;;;49.72;28.67;;;;;;;7.22;67.55;100789.63;5052194;28;20053;-79
2023/04/09 05:59:23;;;;;;;49.65;28.15;;;;;;;7.24;67.58;100788.66;5052836;28;20092;-79
2023/04/09 06:01:50;;;;;;;49.97;28.15;;;;;;;7.27;67.64;100787.72;5052698;28;20053;-79
2023/04/09 06:04:16;;;;;;;50.35;28.10;;;;;;;7.30;67.52;100788.50;5052661;28;20069;-79
2023/04/09 06:06:44;;;;;;;48.13;28.85;;;;;;;7.34;67.68;100786.69;5051910;28;20579;-79
2023/04/09 06:09:11;;;;;;;50.78;28.95;;;;;;;7.38;68.01;100784.81;5052300;28;20045;-79
2023/04/09 06:11:38;;;;;;;50.08;29.00;;;;;;;7.42;67.75;100789.09;5052704;28;20067;-79
2023/04/09 06:14:04;;;;;;;51.28;28.50;;;;;;;7.47;67.74;100796.81;5052772;28;20175;-78
2023/04/09 06:16:32;;;;;;;55.95;28.23;;;;;;;7.50;68.12;100796.72;5031630;28;20120;-79
2023/04/09 06:18:59;;;;;;;48.35;28.85;;;;;;;7.55;67.96;100795.69;5042815;28;20440;-80
2023/04/09 06:21:25;;;;;;;51.13;29.02;;;;;;;7.60;67.84;100795.59;5050684;28;20056;-79
2023/04/09 06:23:52;;;;;;;53.60;29.05;;;;;;;7.64;67.80;100793.72;5050381;28;20057;-78
2023/04/09 06:26:20;;;;;;;50.30;28.70;;;;;;;7.68;68.07;100796.22;5050384;28;20465;-78
2023/04/09 06:28:46;;;;;;;59.17;30.10;;;;;;;7.73;68.27;100800.47;5050125;28;20523;-78
2023/04/09 06:31:13;;;;;;;55.35;30.40;;;;;;;7.76;67.94;100792.50;5049297;28;20167;-78
2023/04/09 06:33:40;;;;;;;49.67;29.02;;;;;;;7.81;68.10;100804.59;5051951;28;20080;-79
2023/04/09 06:36:06;;;;;;;52.15;29.98;;;;;;;7.87;68.02;100803.56;5051701;28;20080;-79
2023/04/09 06:38:33;;;;;;;51.42;28.35;;;;;;;7.93;68.03;100813.03;5051646;28;20465;-78
2023/04/09 06:41:00;;;;;;;49.85;28.83;;;;;;;7.99;67.92;100809.38;5052154;28;20056;-78
2023/04/09 06:43:26;;;;;;;52.88;30.67;;;;;;;8.04;68.29;100812.72;5051881;28;20055;-78
2023/04/09 06:45:53;;;;;;;54.92;30.00;;;;;;;8.11;68.42;100813.38;5051687;28;20417;-78
2023/04/09 06:48:19;;;;;;;53.50;29.50;;;;;;;8.16;68.28;100812.34;5051298;28;20052;-78
2023/04/09 06:50:46;;;;;;;55.15;30.40;;;;;;;8.24;68.39;100811.25;5044641;28;20490;-79
2023/04/09 06:53:14;;;;;;;56.67;31.08;;;;;;;8.30;68.47;100813.69;5039865;28;20055;-78
2023/04/09 06:55:40;;;;;;;57.60;30.67;;;;;;;8.37;68.58;100815.19;5048350;28;20045;-78
2023/04/09 06:58:07;;;;;;;56.38;30.98;;;;;;;8.45;68.61;100820.25;5050854;28;20468;-79
2023/04/09 07:00:34;;;;;;;56.60;30.42;;;;;;;8.52;68.48;100819.13;5045822;28;20058;-79
2023/04/09 07:03:00;;;;;;;57.38;32.00;;;;;;;8.58;68.68;100823.34;5033448;28;20295;-78
2023/04/09 07:05:29;;;;;;;53.08;31.05;;;;;;;8.66;68.45;100821.34;5033399;28;20065;-78
2023/04/09 07:07:56;;;;;;;56.05;31.25;;;;;;;8.72;68.36;100822.91;5033284;28;20140;-78
2023/04/09 07:10:22;;;;;;;56.63;32.17;;;;;;;8.81;68.72;100824.38;5033699;28;20508;-78
2023/04/09 07:12:49;;;;;;;57.92;30.45;;;;;;;8.89;68.82;100822.34;5049383;28;20061;-78
2023/04/09 07:15:15;;;;;;;57.90;31.45;;;;;;;8.97;68.62;100825.59;5038501;28;20056;-78
2023/04/09 07:17:42;;;;;;;52.60;29.77;;;;;;;9.06;68.82;100823.56;5031346;28;20054;-78
2023/04/09 07:20:09;;;;;;;51.20;29.25;;;;;;;9.15;68.51;100825.88;5037330;28;20103;-78
2023/04/09 07:22:35;;;;;;;44.20;25.80;;;;;;;9.24;68.55;100827.34;5030774;28;20053;-78
2023/04/09 07:25:02;;;;;;;42.53;25.85;;;;;;;9.33;68.37;100821.78;5050994;28;20136;-78
2023/04/09 07:27:29;;;;;;;45.33;25.77;;;;;;;9.44;68.47;100824.03;5050891;28;20057;-78
2023/04/09 07:29:58;;;;;;;44.80;27.90;;;;;;;9.55;68.24;100830.69;5051180;28;20060;-78
2023/04/09 07:32:26;;;;;;;46.47;26.48;;;;;;;9.65;68.02;100821.56;5051069;28;20068;-78
2023/04/09 07:34:54;;;;;;;47.00;27.77;;;;;;;9.74;68.03;100826.50;5050839;28;20052;-78
2023/04/09 07:37:21;;;;;;;46.33;27.92;;;;;;;9.83;67.64;100817.38;5050827;28;20053;-78
2023/04/09 07:39:48;;;;;;;48.15;29.27;;;;;;;9.93;67.88;100822.31;5051013;28;20065;-78
2023/04/09 07:42:15;;;;;;;48.05;29.05;;;;;;;9.99;67.74;100825.56;5050931;28;20060;-78
2023/04/09 07:44:42;;;;;;;46.42;28.58;;;;;;;10.06;67.49;100820.09;5050100;28;20060;-78
2023/04/09 07:47:10;;;;;;;45.88;29.17;;;;;;;10.12;67.37;100817.22;5050190;28;20060;-78
2023/04/09 07:49:39;;;;;;;46.92;27.65;;;;;;;10.17;67.34;100818.75;5050790;28;20559;-79
2023/04/09 07:52:06;;;;;;;45.28;26.65;;;;;;;10.24;67.22;100834.34;5050866;28;20536;-78
2023/04/09 07:54:34;;;;;;;42.03;26.00;;;;;;;10.28;67.14;100831.50;5050652;28;20126;-79
2023/04/09 07:57:00;;;;;;;44.67;27.13;;;;;;;10.32;67.01;100829.59;5050221;28;20056;-79
2023/04/09 07:59:28;;;;;;;42.45;26.67;;;;;;;10.38;67.21;100833.78;5032805;28;20049;-79
2023/04/09 08:01:55;;;;;;;41.22;25.23;;;;;;;10.41;66.97;100831.03;5050372;28;20517;-79
2023/04/09 08:04:22;;;;;;;45.05;27.35;;;;;;;10.47;66.89;100836.06;5050499;28;20114;-79
2023/04/09 08:06:49;;;;;;;42.47;26.58;;;;;;;10.52;66.76;100842.03;5049861;28;20052;-78
2023/04/09 08:09:17;;;;;;;46.67;28.30;;;;;;;10.54;66.71;100834.94;5050353;28;20072;-78
2023/04/09 08:11:44;;;;;;;44.80;28.05;;;;;;;10.59;66.87;100842.66;5050566;28;20063;-79
2023/04/09 08:14:11;;;;;;;43.67;26.85;;;;;;;10.65;66.60;100838.94;5050232;28;20444;-78
2023/04/09 08:16:40;;;;;;;45.63;27.45;;;;;;;10.69;66.63;100843.13;5032272;28;20049;-78
2023/04/09 08:19:08;;;;;;;41.47;26.83;;;;;;;10.72;66.51;100843.00;5050498;28;20049;-78
2023/04/09 08:21:44;;;;;;;43.97;26.58;;;;;;;10.73;66.24;100844.72;5050328;28;20067;-79
2023/04/09 08:24:11;;;;;;;39.90;25.70;;;;;;;10.80;66.35;100842.69;5050206;28;20059;-78
2023/04/09 08:26:39;;;;;;;41.88;27.13;;;;;;;10.84;66.32;100843.44;5049611;28;20056;-79
2023/04/09 08:29:07;;;;;;;41.88;26.80;;;;;;;10.89;66.38;100844.09;5050344;28;20048;-78
2023/04/09 08:31:35;;;;;;;41.05;25.88;;;;;;;10.94;66.37;100844.78;5050350;28;20053;-78
2023/04/09 08:34:02;;;;;;;41.88;25.80;;;;;;;10.99;66.38;100840.16;5050288;28;20049;-78
2023/04/09 08:36:28;;;;;;;39.67;25.10;;;;;;;11.05;66.43;100841.69;5050339;28;20119;-80
2023/04/09 08:38:55;;;;;;;41.38;26.02;;;;;;;11.12;66.38;100843.16;5050111;28;20065;-78
2023/04/09 08:41:25;;;;;;;38.50;24.55;;;;;;;11.17;66.34;100841.19;5050406;28;20072;-79
2023/04/09 08:43:52;;;;;;;37.97;25.40;;;;;;;11.25;66.33;100843.47;5050377;28;20057;-78
2023/04/09 08:46:24;;;;;;;37.13;25.17;;;;;;;11.33;66.25;100840.53;5050030;28;20140;-78
2023/04/09 08:48:51;;;;;;;39.33;25.13;;;;;;;11.41;66.02;100838.44;5049921;28;20068;-78
2023/04/09 08:51:21;;;;;;;37.90;25.27;;;;;;;11.49;66.06;100848.66;5021626;28;20514;-79
2023/04/09 08:53:58;;;;;;;38.22;24.55;;;;;;;11.56;65.92;100847.44;5038877;28;20522;-78
2023/04/09 08:56:29;;;;;;;36.45;23.48;;;;;;;11.68;66.12;100840.78;5039513;28;20053;-79
2023/04/09 08:58:55;;;;;;;36.50;23.13;;;;;;;11.78;65.94;100841.22;5014411;28;20054;-79
2023/04/09 09:01:23;;;;;;;33.03;22.45;;;;;;;11.90;65.53;100833.69;5014092;28;20557;-78
2023/04/09 09:04:00;;;;;;;31.65;22.52;;;;;;;11.98;64.72;100836.84;5014025;28;20058;-78
2023/04/09 09:06:31;;;;;;;35.55;23.45;;;;;;;12.11;64.90;100827.47;5013781;28;20062;-79
2023/04/09 09:09:03;;;;;;;33.72;22.00;;;;;;;12.21;64.00;100827.88;5014475;28;20137;-78
2023/04/09 09:11:31;;;;;;;33.63;21.98;;;;;;;12.34;64.23;100832.59;5014092;28;20057;-79
2023/04/09 09:14:05;;;;;;;29.23;20.00;;;;;;;12.44;63.20;100831.22;5012649;28;20141;-77
2023/04/09 09:16:34;;;;;;;33.58;20.90;;;;;;;12.57;63.65;100823.59;5012294;28;20456;-79
2023/04/09 09:19:02;;;;;;;31.98;21.30;;;;;;;12.69;63.64;100837.97;5013730;28;20060;-79
2023/04/09 09:21:29;;;;;;;34.08;21.60;;;;;;;12.81;63.50;100833.88;5012209;28;20498;-79
2023/04/09 09:23:56;;;;;;;32.00;22.45;;;;;;;12.91;63.25;100826.34;5014094;28;20058;-79
2023/04/09 09:26:26;;;;;;;30.50;21.13;;;;;;;13.01;62.93;100835.53;5012189;28;20053;-79
2023/04/09 09:28:52;;;;;;;36.47;23.60;;;;;;;13.13;63.24;100833.22;5013342;28;20061;-79
2023/04/09 09:31:21;;;;;;;37.92;25.10;;;;;;;13.23;63.17;100820.38;5013367;28;20080;-79
2023/04/09 09:33:49;;;;;;;31.77;21.73;;;;;;;13.32;62.62;100827.84;5013755;28;20054;-79
2023/04/09 09:36:33;;;;;;;31.00;21.02;;;;;;;13.38;61.28;100830.16;5013181;28;20060;-79
2023/04/09 09:39:08;;;;;;;33.42;21.63;;;;;;;13.53;62.41;100833.00;5033667;28;20410;-79
2023/04/09 09:41:35;;;;;;;31.60;20.35;;;;;;;13.64;62.63;100814.75;5041805;28;20115;-78
2023/04/09 09:44:03;;;;;;;31.08;22.08;;;;;;;13.77;62.70;100824.69;5034979;28;20052;-78
2023/04/09 09:46:34;;;;;;;30.90;21.92;;;;;;;13.88;61.55;100829.41;5052696;28;20067;-78
2023/04/09 09:49:01;;;;;;;30.08;21.00;;;;;;;14.02;62.17;100818.91;5053128;28;20057;-79
2023/04/09 09:51:28;;;;;;;33.88;21.80;;;;;;;14.14;61.60;100821.84;5052889;28;20077;-79
2023/04/09 09:53:56;;;;;;;30.90;21.83;;;;;;;14.27;61.78;100816.69;5035156;28;20472;-78
2023/04/09 09:56:33;;;;;;;30.00;21.67;;;;;;;14.37;60.47;100815.25;5052472;28;20053;-79
2023/04/09 09:59:06;;;;;;;28.40;20.48;;;;;;;14.53;59.68;100817.03;5053167;28;20143;-80
2023/04/09 10:01:36;;;;;;;29.05;19.35;;;;;;;14.68;60.60;100816.16;5052887;28;20136;-80
2023/04/09 10:04:05;;;;;;;29.98;20.15;;;;;;;14.80;59.25;100808.50;5052868;28;20048;-77
2023/04/09 10:06:37;;;;;;;28.75;18.67;;;;;;;14.90;57.90;100809.66;5051864;28;20429;-77
2023/04/09 10:09:07;;;;;;;27.48;19.60;;;;;;;15.00;58.66;100807.31;5035449;28;20059;-79
2023/04/09 10:11:35;;;;;;;27.58;20.30;;;;;;;15.05;58.71;100792.00;4981570;22;20098;-83
2023/04/09 10:14:04;;;;;;;27.27;19.60;;;;;;;15.16;58.55;100801.97;4975344;28;20042;-84
2023/04/09 10:16:30;;;;;;;27.30;19.23;;;;;;;15.27;58.14;100790.72;4972154;28;20050;-84
2023/04/09 10:18:58;;;;;;;24.77;17.80;;;;;;;15.38;57.70;100795.38;4980848;28;20059;-84
2023/04/09 10:21:42;;;;;;;26.20;18.60;;;;;;;15.47;56.76;100792.16;4972293;28;20142;-84
2023/04/09 10:24:10;;;;;;;25.35;18.83;;;;;;;15.67;57.26;100792.72;4971929;28;20154;-84
2023/04/09 10:26:40;;;;;;;24.00;18.23;;;;;;;15.82;55.74;100790.06;4972586;28;20615;-85
2023/04/09 10:29:15;;;;;;;23.58;17.85;;;;;;;15.94;54.91;100786.66;4973572;28;20093;-84
2023/04/09 10:31:51;;;;;;;25.48;18.83;;;;;;;16.05;54.05;100780.69;4973351;28;20425;-83
2023/04/09 10:34:22;;;;;;;25.08;18.08;;;;;;;16.14;54.39;100772.13;4972063;28;20133;-82
2023/04/09 10:36:54;;;;;;;22.80;16.50;;;;;;;16.23;54.20;100777.78;4973005;28;20129;-81
2023/04/09 10:39:30;;;;;;;20.27;15.35;;;;;;;16.28;52.77;100776.53;4973225;28;20413;-81
2023/04/09 10:41:58;;;;;;;20.85;15.80;;;;;;;16.36;53.82;100776.03;4971965;28;20078;-81
2023/04/09 10:44:26;;;;;;;19.15;14.73;;;;;;;16.39;53.14;100774.97;4973035;28;20051;-81
2023/04/09 10:46:54;;;;;;;18.58;14.07;;;;;;;16.40;52.43;100772.22;4972259;28;20356;-81
2023/04/09 10:49:22;;;;;;;15.75;12.07;;;;;;;16.42;51.73;100761.50;4972994;28;20054;-81
2023/04/09 10:51:52;;;;;;;19.88;14.88;;;;;;;16.44;50.26;100772.88;4972726;28;20055;-81
2023/04/09 10:54:34;;;;;;;17.45;13.73;;;;;;;16.46;50.24;100772.78;4971690;28;20050;-81
2023/04/09 10:57:06;;;;;;;18.70;15.45;;;;;;;16.49;49.89;100777.91;4970907;28;20062;-81
2023/04/09 10:59:37;;;;;;;21.67;15.75;;;;;;;16.49;51.49;100765.44;4971381;28;20153;-81
2023/04/09 11:02:07;;;;;;;19.55;15.57;;;;;;;16.48;50.54;100763.75;4971597;28;20067;-81
2023/04/09 11:04:50;;;;;;;21.45;15.30;;;;;;;16.45;50.37;100755.97;4972668;28;20062;-81
2023/04/09 11:07:21;;;;;;;20.13;15.60;;;;;;;16.54;52.70;100758.03;4972228;28;20065;-81
2023/04/09 11:09:47;;;;;;;20.40;15.90;;;;;;;16.73;54.20;100755.94;4970880;28;20062;-81
2023/04/09 11:12:14;;;;;;;19.55;15.85;;;;;;;17.00;53.31;100755.88;4972669;28;20059;-80
2023/04/09 11:14:40;;;;;;;20.65;16.40;;;;;;;17.26;52.51;100750.59;4970847;28;20398;-81
2023/04/09 11:17:07;;;;;;;21.20;16.58;;;;;;;17.47;51.27;100750.06;4971798;28;20051;-81
2023/04/09 11:19:33;;;;;;;21.40;15.45;;;;;;;17.67;51.64;100739.81;4968633;28;20535;-81
2023/04/09 11:22:05;;;;;;;19.88;14.13;;;;;;;17.96;51.12;100744.84;4967331;28;20051;-81